sensor_id;sensor_type;location;lat;lon;timestamp;pressure;altitude;pressure_sealevel;temperature;humidity
31121;BME280;17770;45.966;13.632;2023-09-19T00:00:28;100133.03;;;26.81;56.47
31121;BME280;17770;45.966;13.632;2023-09-19T00:02:57;100126.09;;;26.80;56.83
31121;BME280;17770;45.966;13.632;2023-09-19T00:05:25;100117.47;;;26.78;56.56
31121;BME280;17770;45.966;13.632;2023-09-19T00:07:53;100120.94;;;26.79;56.57
31121;BME280;17770;45.966;13.632;2023-09-19T00:10:20;100125.94;;;26.82;56.39
31121;BME280;17770;45.966;13.632;2023-09-19T00:12:47;100121.22;;;26.93;56.30
31121;BME280;17770;45.966;13.632;2023-09-19T00:15:13;100124.84;;;26.92;56.10
31121;BME280;17770;45.966;13.632;2023-09-19T00:17:43;100125.00;;;26.91;56.10
31121;BME280;17770;45.966;13.632;2023-09-19T00:20:09;100121.06;;;26.95;56.08
31121;BME280;17770;45.966;13.632;2023-09-19T00:22:39;100120.91;;;26.97;55.97
31121;BME280;17770;45.966;13.632;2023-09-19T00:25:05;100121.91;;;26.96;56.23
31121;BME280;17770;45.966;13.632;2023-09-19T00:27:32;100124.41;;;26.97;56.02
31121;BME280;17770;45.966;13.632;2023-09-19T00:29:59;100126.19;;;26.97;56.16
31121;BME280;17770;45.966;13.632;2023-09-19T00:32:26;100125.34;;;26.96;56.38
31121;BME280;17770;45.966;13.632;2023-09-19T00:34:57;100119.25;;;26.96;56.23
31121;BME280;17770;45.966;13.632;2023-09-19T00:37:23;100120.06;;;26.96;56.19
31121;BME280;17770;45.966;13.632;2023-09-19T00:39:49;100119.25;;;26.96;56.19
31121;BME280;17770;45.966;13.632;2023-09-19T00:42:19;100113.97;;;26.96;56.07
31121;BME280;17770;45.966;13.632;2023-09-19T00:44:47;100112.28;;;26.94;55.85
31121;BME280;17770;45.966;13.632;2023-09-19T00:47:13;100118.56;;;26.93;56.26
31121;BME280;17770;45.966;13.632;2023-09-19T00:49:44;100111.59;;;26.92;56.02
31121;BME280;17770;45.966;13.632;2023-09-19T00:52:11;100109.94;;;26.91;56.01
31121;BME280;17770;45.966;13.632;2023-09-19T00:54:37;100109.09;;;26.91;56.00
31121;BME280;17770;45.966;13.632;2023-09-19T00:57:04;100110.78;;;26.92;55.93
31121;BME280;17770;45.966;13.632;2023-09-19T00:59:30;100110.94;;;26.90;56.16
31121;BME280;17770;45.966;13.632;2023-09-19T01:01:56;100107.31;;;26.91;55.83
31121;BME280;17770;45.966;13.632;2023-09-19T01:04:22;100103.97;;;26.89;56.17
31121;BME280;17770;45.966;13.632;2023-09-19T01:06:49;100103.97;;;26.89;56.12
31121;BME280;17770;45.966;13.632;2023-09-19T01:09:21;100097.88;;;26.89;56.32
31121;BME280;17770;45.966;13.632;2023-09-19T01:11:48;100100.63;;;26.87;56.21
31121;BME280;17770;45.966;13.632;2023-09-19T01:14:29;100101.31;;;26.89;56.07
31121;BME280;17770;45.966;13.632;2023-09-19T01:16:59;100107.47;;;26.90;56.24
31121;BME280;17770;45.966;13.632;2023-09-19T01:19:41;100101.31;;;26.89;55.98
31121;BME280;17770;45.966;13.632;2023-09-19T01:30:27;100099.50;;;26.90;56.40
31121;BME280;17770;45.966;13.632;2023-09-19T01:32:58;100100.16;;;26.84;56.13
31121;BME280;17770;45.966;13.632;2023-09-19T01:35:25;100104.72;;;26.74;56.51
31121;BME280;17770;45.966;13.632;2023-09-19T01:37:51;100104.19;;;26.70;56.33
31121;BME280;17770;45.966;13.632;2023-09-19T01:40:19;100106.13;;;26.68;56.51
31121;BME280;17770;45.966;13.632;2023-09-19T01:50:44;100110.88;;;26.65;56.61
31121;BME280;17770;45.966;13.632;2023-09-19T01:53:24;100113.41;;;26.66;56.59
31121;BME280;17770;45.966;13.632;2023-09-19T01:55:53;100116.88;;;26.67;56.74
31121;BME280;17770;45.966;13.632;2023-09-19T02:00:51;100116.03;;;26.66;56.66
31121;BME280;17770;45.966;13.632;2023-09-19T02:03:17;100118.53;;;26.68;56.80
31121;BME280;17770;45.966;13.632;2023-09-19T02:05:50;100121.19;;;26.68;56.61
31121;BME280;17770;45.966;13.632;2023-09-19T02:08:17;100119.81;;;26.64;56.63
31121;BME280;17770;45.966;13.632;2023-09-19T02:10:45;100119.69;;;26.65;57.03
31121;BME280;17770;45.966;13.632;2023-09-19T02:13:17;100127.75;;;26.64;57.13
31121;BME280;17770;45.966;13.632;2023-09-19T02:15:44;100124.09;;;26.65;56.65
31121;BME280;17770;45.966;13.632;2023-09-19T02:18:10;100123.25;;;26.64;56.69
31121;BME280;17770;45.966;13.632;2023-09-19T02:20:41;100113.53;;;26.65;57.03
31121;BME280;17770;45.966;13.632;2023-09-19T02:23:08;100112.56;;;26.66;56.74
31121;BME280;17770;45.966;13.632;2023-09-19T02:25:34;100107.25;;;26.66;56.69
31121;BME280;17770;45.966;13.632;2023-09-19T02:28:04;100102.94;;;26.65;56.73
31121;BME280;17770;45.966;13.632;2023-09-19T02:30:31;100109.09;;;26.65;56.98
31121;BME280;17770;45.966;13.632;2023-09-19T02:32:57;100103.66;;;26.67;56.84
31121;BME280;17770;45.966;13.632;2023-09-19T02:35:23;100108.78;;;26.68;56.89
31121;BME280;17770;45.966;13.632;2023-09-19T02:37:49;100107.13;;;26.67;56.74
31121;BME280;17770;45.966;13.632;2023-09-19T02:40:15;100103.94;;;26.64;56.48
31121;BME280;17770;45.966;13.632;2023-09-19T02:42:47;100108.38;;;26.63;56.68
31121;BME280;17770;45.966;13.632;2023-09-19T02:45:16;100100.44;;;26.63;56.50
31121;BME280;17770;45.966;13.632;2023-09-19T02:47:43;100104.09;;;26.62;56.51
31121;BME280;17770;45.966;13.632;2023-09-19T02:50:09;100106.72;;;26.62;56.73
31121;BME280;17770;45.966;13.632;2023-09-19T02:52:40;100108.38;;;26.63;56.72
31121;BME280;17770;45.966;13.632;2023-09-19T02:55:09;100099.59;;;26.63;56.61
31121;BME280;17770;45.966;13.632;2023-09-19T02:57:35;100104.91;;;26.63;56.72
31121;BME280;17770;45.966;13.632;2023-09-19T03:00:02;100114.84;;;26.61;56.63
31121;BME280;17770;45.966;13.632;2023-09-19T03:02:28;100106.72;;;26.62;56.83
31121;BME280;17770;45.966;13.632;2023-09-19T03:04:58;100109.22;;;26.64;56.81
31121;BME280;17770;45.966;13.632;2023-09-19T03:07:26;100106.88;;;26.61;56.75
31121;BME280;17770;45.966;13.632;2023-09-19T03:09:52;100110.19;;;26.63;56.68
31121;BME280;17770;45.966;13.632;2023-09-19T03:12:18;100098.94;;;26.61;56.60
31121;BME280;17770;45.966;13.632;2023-09-19T03:14:44;100104.38;;;26.59;56.90
31121;BME280;17770;45.966;13.632;2023-09-19T03:17:10;100100.22;;;26.57;57.26
31121;BME280;17770;45.966;13.632;2023-09-19T03:19:37;100093.28;;;26.56;57.30
31121;BME280;17770;45.966;13.632;2023-09-19T03:22:05;100094.09;;;26.56;57.14
31121;BME280;17770;45.966;13.632;2023-09-19T03:24:31;100086.16;;;26.56;57.13
31121;BME280;17770;45.966;13.632;2023-09-19T03:26:59;100098.56;;;26.56;57.16
31121;BME280;17770;45.966;13.632;2023-09-19T03:29:26;100097.75;;;26.55;57.17
31121;BME280;17770;45.966;13.632;2023-09-19T03:31:53;100095.09;;;26.55;57.36
31121;BME280;17770;45.966;13.632;2023-09-19T03:34:20;100094.41;;;26.53;57.17
31121;BME280;17770;45.966;13.632;2023-09-19T03:36:46;100095.41;;;26.52;57.16
31121;BME280;17770;45.966;13.632;2023-09-19T03:39:12;100095.25;;;26.54;57.31
31121;BME280;17770;45.966;13.632;2023-09-19T03:41:42;100092.59;;;26.54;57.06
31121;BME280;17770;45.966;13.632;2023-09-19T03:44:08;100093.56;;;26.53;57.10
31121;BME280;17770;45.966;13.632;2023-09-19T03:46:34;100085.63;;;26.53;57.34
31121;BME280;17770;45.966;13.632;2023-09-19T03:49:01;100086.63;;;26.52;57.25
31121;BME280;17770;45.966;13.632;2023-09-19T03:51:28;100091.06;;;26.51;57.26
31121;BME280;17770;45.966;13.632;2023-09-19T03:53:54;100081.50;;;26.50;57.61
31121;BME280;17770;45.966;13.632;2023-09-19T03:56:20;100092.06;;;26.50;57.49
31121;BME280;17770;45.966;13.632;2023-09-19T03:58:46;100097.53;;;26.49;58.03
31121;BME280;17770;45.966;13.632;2023-09-19T04:01:12;100100.16;;;26.49;57.50
31121;BME280;17770;45.966;13.632;2023-09-19T04:03:39;100097.53;;;26.49;57.97
31121;BME280;17770;45.966;13.632;2023-09-19T04:06:15;100107.25;;;26.48;57.90
31121;BME280;17770;45.966;13.632;2023-09-19T04:08:41;100109.06;;;26.48;58.13
31121;BME280;17770;45.966;13.632;2023-09-19T04:11:08;100106.56;;;26.46;58.17
31121;BME280;17770;45.966;13.632;2023-09-19T04:13:34;100116.34;;;26.46;58.31
31121;BME280;17770;45.966;13.632;2023-09-19T04:16:00;100112.72;;;26.47;58.03
31121;BME280;17770;45.966;13.632;2023-09-19T04:18:26;100116.19;;;26.47;58.01
31121;BME280;17770;45.966;13.632;2023-09-19T04:20:52;100117.31;;;26.45;58.37
31121;BME280;17770;45.966;13.632;2023-09-19T04:23:19;100116.50;;;26.44;58.30
31121;BME280;17770;45.966;13.632;2023-09-19T04:25:48;100107.41;;;26.47;58.21
31121;BME280;17770;45.966;13.632;2023-09-19T04:28:14;100115.66;;;26.44;58.25
31121;BME280;17770;45.966;13.632;2023-09-19T04:30:41;100116.50;;;26.44;57.91
31121;BME280;17770;45.966;13.632;2023-09-19T04:33:07;100115.66;;;26.44;57.96
31121;BME280;17770;45.966;13.632;2023-09-19T04:35:33;100112.03;;;26.45;58.27
31121;BME280;17770;45.966;13.632;2023-09-19T04:37:59;100114.66;;;26.45;57.88
31121;BME280;17770;45.966;13.632;2023-09-19T04:40:25;100114.66;;;26.45;58.15
31121;BME280;17770;45.966;13.632;2023-09-19T04:42:55;100120.94;;;26.44;57.79
31121;BME280;17770;45.966;13.632;2023-09-19T04:45:26;100131.38;;;26.45;57.55
31121;BME280;17770;45.966;13.632;2023-09-19T04:47:52;100130.38;;;26.46;57.46
31121;BME280;17770;45.966;13.632;2023-09-19T04:50:18;100134.03;;;26.45;57.47
31121;BME280;17770;45.966;13.632;2023-09-19T04:52:44;100140.22;;;26.54;57.36
31121;BME280;17770;45.966;13.632;2023-09-19T04:55:11;100139.53;;;26.52;57.03
31121;BME280;17770;45.966;13.632;2023-09-19T04:57:45;100137.44;;;26.55;57.03
31121;BME280;17770;45.966;13.632;2023-09-19T05:00:15;100132.03;;;26.65;56.90
31121;BME280;17770;45.966;13.632;2023-09-19T05:02:42;100140.69;;;26.67;57.91
31121;BME280;17770;45.966;13.632;2023-09-19T05:05:08;100138.91;;;26.67;57.05
31121;BME280;17770;45.966;13.632;2023-09-19T05:07:36;100136.25;;;26.67;57.16
31121;BME280;17770;45.966;13.632;2023-09-19T05:10:03;100140.22;;;26.71;57.08
31121;BME280;17770;45.966;13.632;2023-09-19T05:12:34;100136.91;;;26.69;56.83
31121;BME280;17770;45.966;13.632;2023-09-19T05:15:10;100136.38;;;26.66;56.70
31121;BME280;17770;45.966;13.632;2023-09-19T05:17:36;100143.50;;;26.65;56.68
31121;BME280;17770;45.966;13.632;2023-09-19T05:20:02;100143.94;;;26.61;56.84
31121;BME280;17770;45.966;13.632;2023-09-19T05:22:41;100145.59;;;26.62;56.95
31121;BME280;17770;45.966;13.632;2023-09-19T05:25:07;100140.28;;;26.62;57.15
31121;BME280;17770;45.966;13.632;2023-09-19T05:27:33;100140.28;;;26.62;56.75
31121;BME280;17770;45.966;13.632;2023-09-19T05:29:59;100129.56;;;26.63;57.05
31121;BME280;17770;45.966;13.632;2023-09-19T05:32:25;100148.38;;;26.60;57.09
31121;BME280;17770;45.966;13.632;2023-09-19T05:34:51;100154.38;;;26.62;57.17
31121;BME280;17770;45.966;13.632;2023-09-19T05:37:22;100157.66;;;26.64;57.16
31121;BME280;17770;45.966;13.632;2023-09-19T05:39:49;100161.88;;;26.67;57.54
31121;BME280;17770;45.966;13.632;2023-09-19T05:42:15;100163.38;;;26.69;56.43
31121;BME280;17770;45.966;13.632;2023-09-19T05:44:41;100163.09;;;26.72;56.43
31121;BME280;17770;45.966;13.632;2023-09-19T05:47:07;100167.53;;;26.72;56.60
31121;BME280;17770;45.966;13.632;2023-09-19T05:49:35;100165.19;;;26.69;56.76
31121;BME280;17770;45.966;13.632;2023-09-19T05:52:05;100166.31;;;26.49;57.05
31121;BME280;17770;45.966;13.632;2023-09-19T05:54:31;100163.44;;;26.42;57.38
31121;BME280;17770;45.966;13.632;2023-09-19T05:56:56;100174.16;;;26.41;57.49
31121;BME280;17770;45.966;13.632;2023-09-19T05:59:23;100166.38;;;26.39;57.41
31121;BME280;17770;45.966;13.632;2023-09-19T06:01:49;100161.09;;;26.39;57.49
31121;BME280;17770;45.966;13.632;2023-09-19T06:04:15;100166.69;;;26.54;57.40
31121;BME280;17770;45.966;13.632;2023-09-19T06:06:41;100169.69;;;26.41;57.50
31121;BME280;17770;45.966;13.632;2023-09-19T06:09:07;100169.63;;;26.33;57.84
31121;BME280;17770;45.966;13.632;2023-09-19T06:11:34;100178.53;;;26.32;57.97
31121;BME280;17770;45.966;13.632;2023-09-19T06:14:01;100176.84;;;26.31;57.89
31121;BME280;17770;45.966;13.632;2023-09-19T06:16:28;100177.69;;;26.32;57.68
31121;BME280;17770;45.966;13.632;2023-09-19T06:18:54;100178.38;;;26.34;57.90
31121;BME280;17770;45.966;13.632;2023-09-19T06:21:22;100179.06;;;26.36;57.48
31121;BME280;17770;45.966;13.632;2023-09-19T06:23:48;100179.06;;;26.36;57.20
31121;BME280;17770;45.966;13.632;2023-09-19T06:26:14;100188.66;;;26.37;57.74
31121;BME280;17770;45.966;13.632;2023-09-19T06:28:40;100187.16;;;26.34;58.14
31121;BME280;17770;45.966;13.632;2023-09-19T06:31:06;100189.81;;;26.34;58.03
31121;BME280;17770;45.966;13.632;2023-09-19T06:33:35;100203.84;;;26.35;57.77
31121;BME280;17770;45.966;13.632;2023-09-19T06:36:04;100196.75;;;26.35;57.92
31121;BME280;17770;45.966;13.632;2023-09-19T06:38:30;100210.97;;;26.34;57.72
31121;BME280;17770;45.966;13.632;2023-09-19T06:40:57;100210.13;;;26.34;57.72
31121;BME280;17770;45.966;13.632;2023-09-19T06:43:23;100211.13;;;26.33;58.15
31121;BME280;17770;45.966;13.632;2023-09-19T06:45:49;100218.91;;;26.34;58.05
31121;BME280;17770;45.966;13.632;2023-09-19T06:48:17;100220.84;;;26.32;58.13
31121;BME280;17770;45.966;13.632;2023-09-19T06:50:43;100228.94;;;26.31;58.03
31121;BME280;17770;45.966;13.632;2023-09-19T06:53:10;100230.75;;;26.30;58.24
31121;BME280;17770;45.966;13.632;2023-09-19T06:55:36;100233.41;;;26.30;58.16
31121;BME280;17770;45.966;13.632;2023-09-19T06:58:02;100228.94;;;26.31;58.22
31121;BME280;17770;45.966;13.632;2023-09-19T07:00:28;100233.41;;;26.30;58.25
31121;BME280;17770;45.966;13.632;2023-09-19T07:02:57;100236.03;;;26.30;58.60
31121;BME280;17770;45.966;13.632;2023-09-19T07:05:24;100234.25;;;26.31;58.34
31121;BME280;17770;45.966;13.632;2023-09-19T07:07:50;100228.94;;;26.31;58.55
31121;BME280;17770;45.966;13.632;2023-09-19T07:10:16;100244.66;;;26.32;58.81
31121;BME280;17770;45.966;13.632;2023-09-19T07:12:42;100255.41;;;26.31;58.86
31121;BME280;17770;45.966;13.632;2023-09-19T07:15:08;100265.53;;;26.35;58.54
31121;BME280;17770;45.966;13.632;2023-09-19T07:17:35;100262.88;;;26.35;58.38
31121;BME280;17770;45.966;13.632;2023-09-19T07:20:00;100264.53;;;26.36;58.44
31121;BME280;17770;45.966;13.632;2023-09-19T07:22:26;100260.22;;;26.35;58.51
31121;BME280;17770;45.966;13.632;2023-09-19T07:24:52;100263.56;;;26.37;58.90
31121;BME280;17770;45.966;13.632;2023-09-19T07:27:18;100266.22;;;26.37;59.09
31121;BME280;17770;45.966;13.632;2023-09-19T07:29:44;100278.44;;;26.38;58.78
31121;BME280;17770;45.966;13.632;2023-09-19T07:32:11;100275.81;;;26.38;58.77
31121;BME280;17770;45.966;13.632;2023-09-19T07:34:37;100283.03;;;26.36;58.92
31121;BME280;17770;45.966;13.632;2023-09-19T07:37:06;100278.44;;;26.38;59.18
31121;BME280;17770;45.966;13.632;2023-09-19T07:39:32;100284.59;;;26.39;58.65
31121;BME280;17770;45.966;13.632;2023-09-19T07:41:57;100285.44;;;26.39;58.68
31121;BME280;17770;45.966;13.632;2023-09-19T07:44:23;100284.44;;;26.40;58.56
31121;BME280;17770;45.966;13.632;2023-09-19T07:46:51;100292.06;;;26.43;58.50
31121;BME280;17770;45.966;13.632;2023-09-19T07:49:17;100288.56;;;26.43;58.55
31121;BME280;17770;45.966;13.632;2023-09-19T07:51:44;100284.97;;;26.44;58.68
31121;BME280;17770;45.966;13.632;2023-09-19T07:54:13;100283.97;;;26.45;58.54
31121;BME280;17770;45.966;13.632;2023-09-19T07:56:40;100293.75;;;26.44;58.53
31121;BME280;17770;45.966;13.632;2023-09-19T07:59:06;100308.63;;;26.45;58.48
31121;BME280;17770;45.966;13.632;2023-09-19T08:01:32;100313.94;;;26.45;58.68
31121;BME280;17770;45.966;13.632;2023-09-19T08:03:58;100313.09;;;26.45;58.45
31121;BME280;17770;45.966;13.632;2023-09-19T08:06:24;100308.47;;;26.47;58.79
31121;BME280;17770;45.966;13.632;2023-09-19T08:08:55;100308.34;;;26.48;59.09
31121;BME280;17770;45.966;13.632;2023-09-19T08:11:23;100306.81;;;26.46;59.05
31121;BME280;17770;45.966;13.632;2023-09-19T08:13:50;100310.13;;;26.48;59.21
31121;BME280;17770;45.966;13.632;2023-09-19T08:16:16;100311.81;;;26.49;58.98
31121;BME280;17770;45.966;13.632;2023-09-19T08:18:46;100323.91;;;26.51;59.67
31121;BME280;17770;45.966;13.632;2023-09-19T08:21:12;100319.31;;;26.53;60.03
31121;BME280;17770;45.966;13.632;2023-09-19T08:23:40;100320.97;;;26.54;60.66
31121;BME280;17770;45.966;13.632;2023-09-19T08:26:06;100331.81;;;26.61;59.77
31121;BME280;17770;45.966;13.632;2023-09-19T08:28:34;100320.25;;;26.62;59.76
31121;BME280;17770;45.966;13.632;2023-09-19T08:31:03;100330.81;;;26.62;60.12
31121;BME280;17770;45.966;13.632;2023-09-19T08:33:33;100343.06;;;26.63;59.21
31121;BME280;17770;45.966;13.632;2023-09-19T08:35:59;100350.19;;;26.62;58.61
31121;BME280;17770;45.966;13.632;2023-09-19T08:38:25;100349.34;;;26.62;58.53
31121;BME280;17770;45.966;13.632;2023-09-19T08:41:04;100355.69;;;26.78;57.90
31121;BME280;17770;45.966;13.632;2023-09-19T08:43:30;100350.09;;;26.81;57.55
31121;BME280;17770;45.966;13.632;2023-09-19T08:46:03;100355.09;;;26.84;57.84
31121;BME280;17770;45.966;13.632;2023-09-19T08:48:32;100356.63;;;26.87;57.66
31121;BME280;17770;45.966;13.632;2023-09-19T08:51:00;100343.38;;;26.87;57.59
31121;BME280;17770;45.966;13.632;2023-09-19T08:53:42;100338.91;;;26.87;58.02
31121;BME280;17770;45.966;13.632;2023-09-19T08:56:14;100341.53;;;26.87;57.74
31121;BME280;17770;45.966;13.632;2023-09-19T08:58:44;100362.72;;;26.87;57.84
31121;BME280;17770;45.966;13.632;2023-09-19T09:01:13;100363.72;;;26.86;57.62
31121;BME280;17770;45.966;13.632;2023-09-19T09:03:40;100359.13;;;26.88;58.07
31121;BME280;17770;45.966;13.632;2023-09-19T09:06:07;100343.22;;;26.88;58.16
31121;BME280;17770;45.966;13.632;2023-09-19T09:08:36;100353.13;;;26.86;58.11
31121;BME280;17770;45.966;13.632;2023-09-19T09:11:03;100357.59;;;26.86;58.20
31121;BME280;17770;45.966;13.632;2023-09-19T09:13:29;100362.88;;;26.86;57.85
31121;BME280;17770;45.966;13.632;2023-09-19T09:15:55;100370.16;;;26.84;58.38
31121;BME280;17770;45.966;13.632;2023-09-19T09:18:21;100367.06;;;26.88;58.18
31121;BME280;17770;45.966;13.632;2023-09-19T09:20:48;100370.66;;;26.87;58.19
31121;BME280;17770;45.966;13.632;2023-09-19T09:23:14;100371.34;;;26.89;58.06
31121;BME280;17770;45.966;13.632;2023-09-19T09:25:49;100360.06;;;26.87;58.11
31121;BME280;17770;45.966;13.632;2023-09-19T09:28:28;100374.16;;;26.88;58.48
31121;BME280;17770;45.966;13.632;2023-09-19T09:30:55;100375.84;;;26.89;58.23
31121;BME280;17770;45.966;13.632;2023-09-19T09:33:21;100387.25;;;26.89;58.26
31121;BME280;17770;45.966;13.632;2023-09-19T09:35:47;100379.16;;;26.91;58.09
31121;BME280;17770;45.966;13.632;2023-09-19T09:38:18;100394.63;;;26.96;58.02
31121;BME280;17770;45.966;13.632;2023-09-19T09:40:50;100403.19;;;26.80;58.62
31121;BME280;17770;45.966;13.632;2023-09-19T09:43:42;100409.41;;;26.88;57.91
31121;BME280;17770;45.966;13.632;2023-09-19T09:46:14;100421.34;;;26.92;57.86
31121;BME280;17770;45.966;13.632;2023-09-19T09:48:59;100413.56;;;26.91;57.86
31121;BME280;17770;45.966;13.632;2023-09-19T09:51:44;100413.78;;;26.80;58.28
31121;BME280;17770;45.966;13.632;2023-09-19T09:54:15;100417.44;;;26.69;58.53
31121;BME280;17770;45.966;13.632;2023-09-19T09:56:54;100430.66;;;26.69;58.46
31121;BME280;17770;45.966;13.632;2023-09-19T10:02:09;100421.06;;;26.68;58.43
31121;BME280;17770;45.966;13.632;2023-09-19T10:04:39;100421.22;;;26.67;58.54
31121;BME280;17770;45.966;13.632;2023-09-19T10:07:27;100423.16;;;26.65;58.22
31121;BME280;17770;45.966;13.632;2023-09-19T10:09:57;100423.72;;;26.68;58.02
31121;BME280;17770;45.966;13.632;2023-09-19T10:12:31;100429.88;;;26.69;58.13
31121;BME280;17770;45.966;13.632;2023-09-19T10:14:57;100427.22;;;26.69;57.76
31121;BME280;17770;45.966;13.632;2023-09-19T10:17:26;100420.94;;;26.70;57.70
31121;BME280;17770;45.966;13.632;2023-09-19T10:19:54;100411.19;;;26.70;58.09
31121;BME280;17770;45.966;13.632;2023-09-19T10:22:24;100411.03;;;26.72;57.93
31121;BME280;17770;45.966;13.632;2023-09-19T10:24:50;100400.69;;;26.78;57.28
31121;BME280;17770;45.966;13.632;2023-09-19T10:27:19;100408.94;;;26.75;57.28
31121;BME280;17770;45.966;13.632;2023-09-19T10:29:46;100413.47;;;26.83;57.20
31121;BME280;17770;45.966;13.632;2023-09-19T10:32:16;100412.50;;;26.84;57.04
31121;BME280;17770;45.966;13.632;2023-09-19T10:34:47;100413.47;;;26.83;57.36
31121;BME280;17770;45.966;13.632;2023-09-19T10:37:15;100410.69;;;26.84;57.06
31121;BME280;17770;45.966;13.632;2023-09-19T10:39:45;100405.69;;;26.81;56.92
31121;BME280;17770;45.966;13.632;2023-09-19T10:42:11;100408.72;;;26.86;57.04
31121;BME280;17770;45.966;13.632;2023-09-19T10:44:42;100404.19;;;26.79;57.30
31121;BME280;17770;45.966;13.632;2023-09-19T10:47:10;100409.75;;;26.76;57.05
31121;BME280;17770;45.966;13.632;2023-09-19T10:49:44;100408.88;;;26.85;56.56
31121;BME280;17770;45.966;13.632;2023-09-19T10:52:12;100403.81;;;26.91;56.34
31121;BME280;17770;45.966;13.632;2023-09-19T10:54:48;100394.06;;;26.92;56.14
31121;BME280;17770;45.966;13.632;2023-09-19T10:57:24;100395.56;;;26.94;56.01
31121;BME280;17770;45.966;13.632;2023-09-19T11:00:06;100391.97;;;26.96;56.51
31121;BME280;17770;45.966;13.632;2023-09-19T11:05:40;100390.97;;;26.97;56.35
31121;BME280;17770;45.966;13.632;2023-09-19T11:08:07;100387.22;;;26.72;56.88
31121;BME280;17770;45.966;13.632;2023-09-19T11:10:46;100386.81;;;26.67;56.87
31121;BME280;17770;45.966;13.632;2023-09-19T11:13:25;100373.84;;;26.64;57.12
31121;BME280;17770;45.966;13.632;2023-09-19T11:26:42;100369.66;;;26.71;56.88
31121;BME280;17770;45.966;13.632;2023-09-19T11:29:24;100380.13;;;26.72;56.77
31121;BME280;17770;45.966;13.632;2023-09-19T11:31:50;100373.84;;;26.73;56.65
31121;BME280;17770;45.966;13.632;2023-09-19T11:37:01;100380.78;;;26.74;56.15
31121;BME280;17770;45.966;13.632;2023-09-19T11:39:30;100378.13;;;26.74;56.49
31121;BME280;17770;45.966;13.632;2023-09-19T11:41:56;100371.88;;;26.75;56.46
31121;BME280;17770;45.966;13.632;2023-09-19T11:49:18;100372.41;;;26.79;56.24
31121;BME280;17770;45.966;13.632;2023-09-19T11:51:52;100366.28;;;26.78;56.52
31121;BME280;17770;45.966;13.632;2023-09-19T11:54:18;100377.41;;;26.82;56.40
31121;BME280;17770;45.966;13.632;2023-09-19T11:56:53;100382.00;;;26.80;56.21
31121;BME280;17770;45.966;13.632;2023-09-19T11:59:20;100387.31;;;26.80;56.29
31121;BME280;17770;45.966;13.632;2023-09-19T12:01:51;100381.03;;;26.81;56.07
31121;BME280;17770;45.966;13.632;2023-09-19T12:04:40;100368.13;;;26.96;56.19
31121;BME280;17770;45.966;13.632;2023-09-19T12:07:07;100372.66;;;26.85;56.40
31121;BME280;17770;45.966;13.632;2023-09-19T12:09:39;100361.69;;;26.80;56.21
31121;BME280;17770;45.966;13.632;2023-09-19T12:12:24;100356.38;;;26.80;56.21
31121;BME280;17770;45.966;13.632;2023-09-19T12:14:52;100359.03;;;26.80;56.40
31121;BME280;17770;45.966;13.632;2023-09-19T12:17:19;100354.75;;;26.97;56.09
31121;BME280;17770;45.966;13.632;2023-09-19T12:19:55;100360.97;;;27.23;55.29
31121;BME280;17770;45.966;13.632;2023-09-19T12:22:21;100362.88;;;27.31;54.72
31121;BME280;17770;45.966;13.632;2023-09-19T12:24:47;100366.84;;;27.00;55.51
31121;BME280;17770;45.966;13.632;2023-09-19T12:27:13;100367.91;;;26.89;55.66
31121;BME280;17770;45.966;13.632;2023-09-19T12:29:43;100366.94;;;27.25;54.92
31121;BME280;17770;45.966;13.632;2023-09-19T12:32:10;100369.00;;;27.31;54.41
31121;BME280;17770;45.966;13.632;2023-09-19T12:34:36;100373.84;;;27.36;54.46
31121;BME280;17770;45.966;13.632;2023-09-19T12:39:44;100366.44;;;27.39;54.27
31121;BME280;17770;45.966;13.632;2023-09-19T12:42:15;100359.84;;;27.43;53.99
31121;BME280;17770;45.966;13.632;2023-09-19T12:44:50;100354.09;;;27.48;54.20
31121;BME280;17770;45.966;13.632;2023-09-19T12:47:22;100354.09;;;27.48;53.80
31121;BME280;17770;45.966;13.632;2023-09-19T12:52:36;100362.53;;;26.99;55.35
31121;BME280;17770;45.966;13.632;2023-09-19T12:55:02;100357.16;;;26.90;56.03
31121;BME280;17770;45.966;13.632;2023-09-19T12:57:28;100361.63;;;26.90;55.97
31121;BME280;17770;45.966;13.632;2023-09-19T12:59:56;100367.06;;;26.88;55.59
31121;BME280;17770;45.966;13.632;2023-09-19T13:02:23;100366.06;;;26.89;55.80
31121;BME280;17770;45.966;13.632;2023-09-19T13:04:54;100368.72;;;26.89;56.32
31121;BME280;17770;45.966;13.632;2023-09-19T13:07:43;100377.50;;;26.90;56.36
31121;BME280;17770;45.966;13.632;2023-09-19T13:10:09;100383.63;;;26.90;55.87
31121;BME280;17770;45.966;13.632;2023-09-19T13:12:36;100386.28;;;26.90;55.90
31121;BME280;17770;45.966;13.632;2023-09-19T13:15:07;100381.00;;;26.90;55.93
31121;BME280;17770;45.966;13.632;2023-09-19T13:17:43;100376.34;;;26.92;55.94
31121;BME280;17770;45.966;13.632;2023-09-19T13:20:20;100374.53;;;26.93;55.67
31121;BME280;17770;45.966;13.632;2023-09-19T13:22:50;100377.03;;;26.94;55.65
31121;BME280;17770;45.966;13.632;2023-09-19T13:25:20;100370.03;;;27.03;55.47
31121;BME280;17770;45.966;13.632;2023-09-19T13:27:50;100372.22;;;27.08;55.16
31121;BME280;17770;45.966;13.632;2023-09-19T13:30:22;100379.84;;;27.11;55.18
31121;BME280;17770;45.966;13.632;2023-09-19T13:32:48;100377.91;;;27.13;54.84
31121;BME280;17770;45.966;13.632;2023-09-19T13:35:14;100386.69;;;27.13;54.90